Time;durP1;ratioP1;P1;durP2;ratioP2;P2;SDS_P1;SDS_P2;PMS_P1;PMS_P2;Temp;Humidity;BMP_temperature;BMP_pressure;BME280_temperature;BME280_humidity;BME280_pressure;Samples;Min_cycle;Max_cycle;Signal;HPM_P1;HPM_P2
2023/06/02 00:00:39;;;;;;;34.05;7.43;;;;;;;19.85;53.78;100482.94;5015595;28;20049;-90
2023/06/02 00:03:05;;;;;;;46.13;7.45;;;;;;;19.89;53.35;100493.31;5034925;28;20550;-90
2023/06/02 00:05:31;;;;;;;176.75;23.67;;;;;;;19.94;53.27;100509.09;5016200;28;20021;-90
2023/06/02 00:07:57;;;;;;;91.72;13.30;;;;;;;19.80;53.71;100491.69;5033982;28;20029;-90
2023/06/02 00:10:23;;;;;;;47.90;9.43;;;;;;;19.66;54.52;100473.44;5031525;28;20109;-91
2023/06/02 00:12:48;;;;;;;33.22;9.60;;;;;;;19.64;54.86;100477.38;5053481;28;20076;-90
2023/06/02 00:15:14;;;;;;;28.90;7.43;;;;;;;19.74;55.30;100491.59;5054926;28;20041;-90
2023/06/02 00:17:39;;;;;;;44.70;10.25;;;;;;;19.82;55.94;100505.16;5040403;28;20037;-91
2023/06/02 00:20:05;;;;;;;23.33;6.75;;;;;;;19.69;55.91;100483.13;5031992;28;20029;-90
2023/06/02 00:22:32;;;;;;;11.57;5.90;;;;;;;19.64;55.79;100493.75;5014690;28;20036;-90
2023/06/02 00:24:58;;;;;;;23.00;8.32;;;;;;;19.63;56.74;100492.06;4970770;28;21062;-90
2023/06/02 00:27:23;;;;;;;40.90;9.45;;;;;;;19.46;56.64;100484.03;4954461;28;20042;-91
2023/06/02 00:29:50;;;;;;;22.48;8.70;;;;;;;19.60;56.79;100504.19;4970377;28;20105;-90
2023/06/02 00:32:15;;;;;;;24.30;8.48;;;;;;;19.62;56.75;100498.56;4971884;28;20031;-90
2023/06/02 00:34:41;;;;;;;21.75;8.07;;;;;;;19.61;56.75;100502.31;4989976;28;20115;-89
2023/06/02 00:37:06;;;;;;;25.25;7.25;;;;;;;19.53;56.87;100487.72;4993979;28;20069;-90
2023/06/02 00:39:32;;;;;;;24.60;8.63;;;;;;;19.59;57.23;100494.31;4996277;28;20031;-90
2023/06/02 00:41:58;;;;;;;30.45;7.70;;;;;;;19.49;57.54;100485.53;4980255;28;20067;-91
2023/06/02 00:44:23;;;;;;;25.55;7.63;;;;;;;19.46;57.40;100481.31;4976078;28;20047;-89
2023/06/02 00:46:48;;;;;;;24.50;8.20;;;;;;;19.45;56.79;100482.34;4978792;28;20035;-91
2023/06/02 00:49:14;;;;;;;22.20;7.85;;;;;;;19.42;56.73;100476.41;4972403;28;20125;-89
2023/06/02 00:51:41;;;;;;;31.20;8.68;;;;;;;19.36;56.80;100480.69;4974395;28;20094;-91
2023/06/02 00:54:08;;;;;;;21.23;7.90;;;;;;;19.41;56.67;100491.94;4969927;28;20057;-92
2023/06/02 00:56:33;;;;;;;37.80;8.30;;;;;;;19.30;57.05;100475.97;4999130;28;20080;-91
2023/06/02 00:58:59;;;;;;;28.35;6.95;;;;;;;19.23;57.20;100477.78;5030822;28;20029;-92
2023/06/02 01:01:25;;;;;;;11.82;6.88;;;;;;;19.17;56.79;100456.69;5013580;28;20056;-90
2023/06/02 01:03:51;;;;;;;14.90;6.85;;;;;;;19.21;56.86;100474.34;5013493;28;20063;-90
2023/06/02 01:06:23;;;;;;;28.23;6.95;;;;;;;19.18;56.62;100474.72;5029463;28;20048;-91
2023/06/02 01:08:51;;;;;;;194.57;30.63;;;;;;;19.18;55.95;100473.88;5031610;28;20093;-90
2023/06/02 01:11:17;;;;;;;57.80;11.77;;;;;;;19.00;55.84;100455.13;5030964;28;20145;-90
2023/06/02 01:13:42;;;;;;;50.65;9.70;;;;;;;19.11;55.69;100490.13;5031030;28;20120;-91
2023/06/02 01:16:12;;;;;;;32.65;8.57;;;;;;;19.17;55.44;100499.47;5030987;28;20104;-91
2023/06/02 01:18:42;;;;;;;25.02;7.38;;;;;;;18.97;55.40;100467.25;5031199;28;20037;-91
2023/06/02 01:21:09;;;;;;;27.20;7.00;;;;;;;19.10;55.31;100487.59;5034368;28;20069;-91
2023/06/02 01:23:36;;;;;;;22.50;7.03;;;;;;;19.12;54.83;100480.91;5030009;28;20029;-91
2023/06/02 01:26:05;;;;;;;11.75;6.85;;;;;;;19.18;54.85;100491.09;5032043;28;20068;-91
2023/06/02 01:28:30;;;;;;;15.02;6.88;;;;;;;19.22;55.04;100497.88;5018335;28;20420;-90
2023/06/02 01:31:08;;;;;;;20.70;6.25;;;;;;;19.20;55.00;100494.50;5018710;28;20038;-90
2023/06/02 01:33:49;;;;;;;14.55;7.07;;;;;;;19.28;54.84;100496.28;5018888;28;20093;-90
2023/06/02 01:36:20;;;;;;;32.50;7.90;;;;;;;19.24;55.05;100490.34;5040273;28;20029;-90
2023/06/02 01:38:48;;;;;;;34.08;7.72;;;;;;;19.07;55.37;100461.53;5029384;28;20053;-89
2023/06/02 01:41:16;;;;;;;70.22;9.98;;;;;;;19.30;55.40;100489.63;5058299;28;20018;-91
2023/06/02 01:43:42;;;;;;;42.08;10.70;;;;;;;19.18;55.37;100469.28;5057860;28;20053;-90
2023/06/02 01:46:10;;;;;;;92.22;10.85;;;;;;;19.18;55.47;100474.72;5019025;28;20045;-91
2023/06/02 01:48:35;;;;;;;43.25;8.65;;;;;;;19.18;55.29;100469.28;5032297;28;20076;-90
2023/06/02 01:51:02;;;;;;;32.72;7.50;;;;;;;19.16;55.29;100476.81;5016461;28;20037;-90
2023/06/02 01:53:27;;;;;;;26.63;7.32;;;;;;;19.09;56.08;100464.94;5033507;28;20021;-90
2023/06/02 01:55:54;;;;;;;24.13;7.22;;;;;;;19.11;56.14;100492.84;5034167;28;20524;-91
2023/06/02 01:58:20;;;;;;;24.33;6.88;;;;;;;19.00;56.15;100472.31;4992325;28;20439;-90
2023/06/02 02:00:45;;;;;;;16.77;7.63;;;;;;;19.02;56.19;100485.75;4991788;28;20057;-90
2023/06/02 02:03:12;;;;;;;20.85;6.88;;;;;;;18.89;56.11;100467.31;4975652;28;20039;-90
2023/06/02 02:05:38;;;;;;;19.10;6.40;;;;;;;18.96;56.03;100489.22;4992193;28;20027;-90
2023/06/02 02:08:04;;;;;;;19.88;7.28;;;;;;;18.91;56.01;100489.78;4992202;28;20045;-91
2023/06/02 02:10:30;;;;;;;12.75;6.50;;;;;;;18.86;55.82;100480.47;4991144;28;20406;-89
2023/06/02 02:12:55;;;;;;;10.55;6.30;;;;;;;18.94;55.64;100488.56;4991915;28;20034;-90
2023/06/02 02:15:21;;;;;;;33.70;8.43;;;;;;;18.84;55.68;100477.03;4992307;28;20058;-91
2023/06/02 02:17:47;;;;;;;36.45;8.10;;;;;;;18.86;55.32;100481.31;4994564;28;20066;-91
2023/06/02 02:20:17;;;;;;;17.15;7.28;;;;;;;18.88;55.20;100483.84;4999680;28;20101;-89
2023/06/02 02:22:43;;;;;;;14.80;6.57;;;;;;;18.88;54.92;100478.38;4981567;28;20074;-91
2023/06/02 02:25:09;;;;;;;10.90;7.00;;;;;;;18.98;54.96;100481.72;4975468;28;20042;-90
2023/06/02 02:27:35;;;;;;;11.38;6.78;;;;;;;18.98;55.03;100468.09;4991294;28;20034;-90
2023/06/02 02:30:03;;;;;;;12.98;6.57;;;;;;;19.03;55.17;100480.13;5024886;28;20046;-90
2023/06/02 02:32:29;;;;;;;32.35;8.77;;;;;;;18.97;55.15;100461.78;5020147;28;20104;-90
2023/06/02 02:34:55;;;;;;;29.85;7.90;;;;;;;18.98;55.06;100459.91;5037569;28;20040;-91
2023/06/02 02:37:20;;;;;;;14.23;7.60;;;;;;;18.87;55.25;100443.97;5050425;28;20013;-91
2023/06/02 02:39:46;;;;;;;61.80;14.15;;;;;;;19.09;55.51;100488.59;5041253;28;20091;-83
2023/06/02 02:42:11;;;;;;;44.72;9.90;;;;;;;19.11;55.61;100495.56;5042059;28;20532;-82
2023/06/02 02:44:37;;;;;;;38.38;9.50;;;;;;;18.95;55.92;100474.75;5040652;28;20153;-89
2023/06/02 02:47:02;;;;;;;55.75;10.05;;;;;;;19.04;56.42;100502.81;5031614;28;20021;-87
2023/06/02 02:49:28;;;;;;;42.45;10.15;;;;;;;19.07;56.24;100502.44;5015057;28;20504;-86
2023/06/02 02:51:54;;;;;;;53.90;10.10;;;;;;;19.15;55.92;100507.81;5035515;28;20095;-86
2023/06/02 02:54:20;;;;;;;19.02;7.90;;;;;;;19.03;55.82;100493.78;5034732;28;20034;-87
2023/06/02 02:56:45;;;;;;;33.90;9.30;;;;;;;18.93;55.73;100486.84;5034463;28;20026;-86
2023/06/02 02:59:12;;;;;;;41.65;11.40;;;;;;;19.07;56.38;100516.06;5034143;28;20032;-86
2023/06/02 03:01:43;;;;;;;31.83;13.27;;;;;;;19.02;56.73;100505.69;5025883;28;20088;-85
2023/06/02 03:04:10;;;;;;;40.28;18.85;;;;;;;19.00;57.15;100498.72;5016536;28;20036;-86
2023/06/02 03:06:43;;;;;;;47.72;15.38;;;;;;;19.04;56.83;100497.34;5029399;28;20026;-85
2023/06/02 03:09:08;;;;;;;;;;;;;;;19.13;57.03;100515.34;5016979;28;20050;-85
2023/06/02 03:11:34;;;;;;;50.50;17.75;;;;;;;19.00;57.84;100501.47;5013185;28;20281;-87
2023/06/02 03:14:00;;;;;;;32.20;15.45;;;;;;;18.94;57.80;100494.00;5012686;28;20494;-88
2023/06/02 03:16:28;;;;;;;26.23;14.68;;;;;;;18.96;57.66;100494.66;5012275;28;20037;-86
2023/06/02 03:18:54;;;;;;;32.03;13.77;;;;;;;18.95;57.48;100476.63;5012776;28;21054;-87
2023/06/02 03:21:21;;;;;;;45.63;13.15;;;;;;;18.98;57.17;100500.81;5012530;28;20041;-86
2023/06/02 03:23:46;;;;;;;32.05;11.90;;;;;;;19.09;56.23;100524.03;5013261;28;20036;-87
2023/06/02 03:26:12;;;;;;;41.55;11.63;;;;;;;19.07;56.07;100526.13;5019128;28;20025;-88
2023/06/02 03:28:39;;;;;;;52.40;11.52;;;;;;;19.00;55.84;100504.19;5015454;28;20038;-86
2023/06/02 03:31:05;;;;;;;14.32;8.02;;;;;;;19.05;55.42;100492.75;5016134;28;20038;-86
2023/06/02 03:33:30;;;;;;;42.45;10.90;;;;;;;19.15;55.52;100505.09;5018528;28;20768;-86
2023/06/02 03:35:56;;;;;;;28.85;9.93;;;;;;;19.07;55.77;100493.41;5033119;28;20070;-88
2023/06/02 03:38:21;;;;;;;62.03;12.45;;;;;;;19.08;56.32;100495.94;5029398;28;20041;-87
2023/06/02 03:40:47;;;;;;;74.18;11.55;;;;;;;19.01;56.66;100492.25;5014241;28;20038;-86
2023/06/02 03:43:13;;;;;;;73.53;13.27;;;;;;;19.12;57.05;100508.19;5020944;28;20037;-86
2023/06/02 03:45:38;;;;;;;57.13;12.68;;;;;;;19.06;57.07;100487.09;5031183;28;20022;-86
2023/06/02 03:48:05;;;;;;;100.57;13.98;;;;;;;18.99;57.54;100477.94;5016247;28;20048;-89
2023/06/02 03:50:30;;;;;;;78.20;15.95;;;;;;;19.22;57.81;100502.47;5021814;28;20101;-86
2023/06/02 03:52:55;;;;;;;85.43;14.10;;;;;;;19.13;57.90;100490.78;5012869;28;20472;-86
2023/06/02 03:55:22;;;;;;;72.40;13.02;;;;;;;19.12;58.07;100471.88;5014682;28;20030;-85
2023/06/02 03:57:47;;;;;;;205.43;28.15;;;;;;;19.19;58.01;100492.78;5027310;28;20489;-83
2023/06/02 04:00:13;;;;;;;122.43;19.02;;;;;;;19.42;58.13;100503.69;5026532;28;20044;-82
2023/06/02 04:02:38;;;;;;;114.95;17.27;;;;;;;19.37;58.08;100493.31;5018861;28;20458;-84
2023/06/02 04:05:05;;;;;;;121.45;17.98;;;;;;;19.47;58.07;100502.13;5020520;28;20026;-85
2023/06/02 04:07:31;;;;;;;78.45;16.80;;;;;;;19.57;58.05;100495.53;5029841;28;20025;-90
2023/06/02 04:09:56;;;;;;;89.47;14.73;;;;;;;19.68;58.21;100497.81;5033286;28;20033;-86
2023/06/02 04:12:21;;;;;;;105.03;15.65;;;;;;;19.80;57.95;100508.09;5035363;28;20025;-81
2023/06/02 04:14:47;;;;;;;90.68;15.65;;;;;;;19.84;57.83;100506.69;5031824;28;20030;-84
2023/06/02 04:17:13;;;;;;;83.63;17.58;;;;;;;19.87;57.37;100487.19;5025394;28;20801;-85
2023/06/02 04:19:38;;;;;;;93.22;20.33;;;;;;;20.00;57.27;100503.75;5021760;28;20022;-84
2023/06/02 04:22:05;;;;;;;79.63;20.00;;;;;;;20.12;57.04;100497.81;5014622;28;20034;-84
2023/06/02 04:24:30;;;;;;;76.90;22.23;;;;;;;20.19;56.65;100499.59;5020482;28;20032;-81
2023/06/02 04:26:56;;;;;;;79.78;22.42;;;;;;;20.21;56.32;100483.88;5020974;28;20085;-84
2023/06/02 04:29:22;;;;;;;78.57;22.42;;;;;;;20.42;56.12;100503.09;5010939;28;20057;-81
2023/06/02 04:31:48;;;;;;;87.88;21.10;;;;;;;20.39;55.88;100476.16;5026700;28;20057;-82
2023/06/02 04:34:14;;;;;;;65.05;21.13;;;;;;;20.56;55.87;100488.53;5042202;28;20029;-85
2023/06/02 04:36:41;;;;;;;95.22;21.85;;;;;;;20.76;55.64;100504.31;5034810;28;20025;-84
2023/06/02 04:39:11;;;;;;;76.20;20.73;;;;;;;20.87;55.34;100501.06;5030802;28;20025;-79
2023/06/02 04:41:37;;;;;;;156.65;33.10;;;;;;;20.97;55.29;100501.59;5030330;28;20029;-80
2023/06/02 04:44:04;;;;;;;70.78;22.70;;;;;;;21.05;55.43;100493.25;5030115;28;20842;-80
2023/06/02 04:46:30;;;;;;;73.85;23.30;;;;;;;21.20;55.39;100491.31;5029421;28;20049;-79
2023/06/02 04:48:56;;;;;;;74.45;24.17;;;;;;;21.30;55.09;100500.06;5029737;28;20079;-80
2023/06/02 04:51:29;;;;;;;90.38;24.90;;;;;;;21.35;54.72;100474.81;5029528;28;20075;-80
2023/06/02 04:53:55;;;;;;;91.68;26.50;;;;;;;21.60;54.30;100493.34;5029520;28;20040;-80
2023/06/02 04:56:22;;;;;;;84.88;28.35;;;;;;;21.50;54.32;100462.72;5029070;28;20022;-80
2023/06/02 04:58:47;;;;;;;66.00;25.15;;;;;;;21.81;54.28;100494.31;5029421;28;20061;-83
2023/06/02 05:01:12;;;;;;;98.35;28.80;;;;;;;21.82;54.01;100482.31;5030209;28;20112;-82
2023/06/02 05:03:40;;;;;;;109.63;30.40;;;;;;;22.02;53.95;100502.47;5029913;28;20029;-77
2023/06/02 05:06:05;;;;;;;67.88;28.35;;;;;;;22.10;53.53;100505.94;5028599;28;20029;-78
2023/06/02 05:08:31;;;;;;;104.57;30.00;;;;;;;22.16;53.28;100493.31;5029942;28;20035;-77
2023/06/02 05:10:56;;;;;;;63.33;29.17;;;;;;;22.33;52.88;100497.38;5031089;28;20021;-78
2023/06/02 05:13:23;;;;;;;130.75;33.53;;;;;;;22.25;51.81;100475.66;5028841;28;20064;-78
2023/06/02 05:15:48;;;;;;;93.07;29.02;;;;;;;22.49;51.36;100499.78;5028978;28;20118;-77
2023/06/02 05:18:14;;;;;;;80.53;29.25;;;;;;;22.56;50.33;100494.31;5029456;28;20479;-78
2023/06/02 05:20:41;;;;;;;66.30;26.20;;;;;;;22.57;49.58;100491.34;5029152;28;20048;-78
2023/06/02 05:23:07;;;;;;;81.03;26.02;;;;;;;22.68;49.29;100479.00;5027694;28;20034;-77
2023/06/02 05:25:33;;;;;;;59.50;27.10;;;;;;;22.82;48.95;100499.06;5028986;28;20025;-79
2023/06/02 05:27:58;;;;;;;57.25;24.98;;;;;;;22.82;48.68;100482.59;5015515;28;20053;-79
2023/06/02 05:30:24;;;;;;;69.03;24.77;;;;;;;22.97;48.22;100491.50;5019437;28;20413;-79
2023/06/02 05:32:50;;;;;;;43.50;24.77;;;;;;;22.98;47.90;100482.22;5011394;28;20108;-78
2023/06/02 05:35:15;;;;;;;51.67;21.15;;;;;;;23.09;47.37;100498.03;5015400;28;20029;-77
2023/06/02 05:37:41;;;;;;;52.42;21.35;;;;;;;23.16;47.02;100480.56;5028584;28;20482;-77
2023/06/02 05:40:07;;;;;;;45.97;19.50;;;;;;;23.33;46.56;100493.88;5028616;28;20541;-77
2023/06/02 05:42:32;;;;;;;50.13;23.55;;;;;;;23.41;46.52;100491.78;5028990;28;20053;-76
2023/06/02 05:45:44;;;;;;;60.20;23.70;;;;;;;23.55;46.68;100478.88;5087395;27;20393;-90
2023/06/02 05:48:10;;;;;;;45.38;23.00;;;;;;;23.58;46.48;100457.34;5087193;28;20033;-82
2023/06/02 05:50:36;;;;;;;74.60;22.88;;;;;;;23.57;45.51;100444.69;5080879;28;20071;-81
2023/06/02 05:53:02;;;;;;;42.15;22.00;;;;;;;23.87;45.21;100477.16;5085561;28;20032;-85
2023/06/02 05:55:27;;;;;;;50.28;21.92;;;;;;;23.92;44.83;100463.59;5087508;28;20025;-82
2023/06/02 05:57:53;;;;;;;39.75;18.92;;;;;;;24.12;44.36;100469.94;5085868;28;20039;-86
2023/06/02 06:00:20;;;;;;;29.33;13.15;;;;;;;24.14;43.26;100459.56;5085675;28;20051;-87
2023/06/02 06:02:46;;;;;;;35.75;15.57;;;;;;;24.14;43.20;100465.91;5087782;28;20028;-88
2023/06/02 06:05:13;;;;;;;51.40;14.20;;;;;;;24.13;41.92;100449.63;5086299;28;20478;-86
2023/06/02 06:07:38;;;;;;;44.05;15.82;;;;;;;24.26;41.76;100455.91;5084725;28;20407;-83
2023/06/02 06:10:04;;;;;;;47.50;14.05;;;;;;;24.53;42.59;100478.63;5086713;28;20032;-86
2023/06/02 06:12:29;;;;;;;47.38;15.75;;;;;;;24.59;43.33;100460.41;5085254;28;20529;-81
2023/06/02 06:14:55;;;;;;;34.13;14.88;;;;;;;24.79;42.99;100467.50;5085624;28;20082;-83
2023/06/02 06:17:20;;;;;;;30.80;15.73;;;;;;;24.89;42.23;100469.81;5085990;28;20031;-85
2023/06/02 06:19:45;;;;;;;34.22;15.00;;;;;;;24.95;41.82;100463.41;5086918;28;20389;-84
2023/06/02 06:22:11;;;;;;;74.22;16.20;;;;;;;24.98;42.01;100467.63;5088484;28;20031;-85
2023/06/02 06:24:37;;;;;;;65.95;16.30;;;;;;;25.08;41.30;100462.44;5095253;28;20040;-84
2023/06/02 06:27:02;;;;;;;45.72;15.43;;;;;;;25.23;41.26;100471.22;5100499;28;20091;-84
2023/06/02 06:29:28;;;;;;;40.78;14.32;;;;;;;25.23;41.78;100458.31;5092113;28;20028;-89
2023/06/02 06:31:54;;;;;;;36.03;13.95;;;;;;;25.30;41.41;100455.50;5082584;28;20044;-82
2023/06/02 06:34:19;;;;;;;39.78;14.15;;;;;;;25.38;41.34;100461.56;5083654;28;20511;-85
2023/06/02 06:36:47;;;;;;;39.33;12.90;;;;;;;25.38;41.98;100444.22;5084300;28;20043;-88
2023/06/02 06:39:12;;;;;;;39.55;13.43;;;;;;;25.49;41.73;100443.50;5086293;28;20024;-85
2023/06/02 06:41:40;;;;;;;42.38;14.57;;;;;;;25.63;39.92;100456.06;5083288;28;20038;-83
2023/06/02 06:44:06;;;;;;;39.67;12.60;;;;;;;25.72;40.16;100456.59;5083670;28;20052;-82
2023/06/02 06:46:32;;;;;;;42.20;13.85;;;;;;;25.78;40.66;100463.97;5084764;28;20029;-82
2023/06/02 06:48:58;;;;;;;44.85;11.15;;;;;;;25.86;40.22;100461.78;5084080;28;20388;-81
2023/06/02 06:51:24;;;;;;;36.95;11.15;;;;;;;25.90;39.28;100464.94;5084107;28;20036;-81
2023/06/02 06:53:49;;;;;;;36.83;12.05;;;;;;;25.89;39.28;100464.09;5084538;28;20498;-81
2023/06/02 06:56:15;;;;;;;24.45;9.80;;;;;;;25.85;39.22;100449.06;5076256;28;20021;-85
2023/06/02 06:58:40;;;;;;;30.73;10.32;;;;;;;26.02;39.12;100460.34;5069880;28;20579;-82
2023/06/02 07:01:06;;;;;;;28.85;8.68;;;;;;;26.08;38.42;100458.56;5051378;28;20404;-82
2023/06/02 07:03:31;;;;;;;21.77;8.00;;;;;;;26.10;38.17;100453.66;5070851;28;20532;-82
2023/06/02 07:05:57;;;;;;;19.67;8.27;;;;;;;26.23;38.51;100459.06;5085110;28;20033;-80
2023/06/02 07:08:22;;;;;;;22.15;9.20;;;;;;;26.14;38.09;100443.88;5070930;28;20598;-81
2023/06/02 07:10:48;;;;;;;43.67;9.43;;;;;;;26.30;38.09;100473.59;5070507;28;20028;-82
2023/06/02 07:13:13;;;;;;;22.63;8.80;;;;;;;26.36;38.86;100475.44;5071224;28;20392;-80
2023/06/02 07:15:38;;;;;;;65.32;11.40;;;;;;;26.34;39.96;100467.38;5072279;28;20020;-82
2023/06/02 07:18:04;;;;;;;39.92;9.73;;;;;;;26.45;40.28;100471.31;5071208;28;20116;-82
2023/06/02 07:20:30;;;;;;;20.95;7.95;;;;;;;26.37;40.28;100460.56;5072129;28;20039;-82
2023/06/02 07:22:56;;;;;;;34.47;7.35;;;;;;;26.43;40.17;100477.03;5072704;28;20586;-82
2023/06/02 07:25:21;;;;;;;23.27;8.07;;;;;;;26.28;39.41;100476.59;5071919;28;20028;-81
2023/06/02 07:27:47;;;;;;;98.63;18.98;;;;;;;26.32;38.49;100480.59;5070058;28;20078;-82
2023/06/02 07:30:12;;;;;;;16.55;7.75;;;;;;;26.08;39.08;100475.13;5071660;28;20020;-90
2023/06/02 07:32:38;;;;;;;14.57;6.60;;;;;;;26.11;39.12;100482.94;5071137;28;20480;-81
2023/06/02 07:35:04;;;;;;;17.38;7.80;;;;;;;26.20;38.24;100489.84;5074739;28;20365;-83
2023/06/02 07:37:29;;;;;;;18.08;7.22;;;;;;;26.05;38.10;100483.84;5077304;28;20090;-86
2023/06/02 07:39:54;;;;;;;47.88;7.72;;;;;;;26.09;37.76;100493.31;5070848;28;20028;-85
2023/06/02 07:42:21;;;;;;;20.10;7.05;;;;;;;25.95;37.20;100479.69;5069281;28;20021;-83
2023/06/02 07:44:47;;;;;;;24.08;7.82;;;;;;;25.77;37.18;100487.94;5070653;28;20049;-84
2023/06/02 07:47:13;;;;;;;42.35;9.00;;;;;;;25.62;39.37;100506.75;5070783;28;20043;-87
2023/06/02 07:49:38;;;;;;;20.15;7.25;;;;;;;25.56;38.75;100490.28;5070105;28;20028;-84
2023/06/02 07:52:04;;;;;;;22.88;8.45;;;;;;;25.49;39.88;100490.31;5070333;28;20385;-83
2023/06/02 07:54:29;;;;;;;20.35;9.70;;;;;;;25.57;39.97;100498.28;5075387;28;20431;-85
2023/06/02 07:56:55;;;;;;;71.35;11.95;;;;;;;25.49;40.13;100476.56;5085628;28;20029;-88
2023/06/02 07:59:41;;;;;;;31.73;9.90;;;;;;;25.57;39.12;100497.44;5082481;28;20073;-87
2023/06/02 08:02:06;;;;;;;25.33;10.30;;;;;;;25.58;40.40;100505.50;5057143;28;20029;-86
2023/06/02 08:04:32;;;;;;;41.92;11.27;;;;;;;25.65;39.99;100494.44;5070096;28;20052;-93
2023/06/02 08:06:57;;;;;;;27.88;10.10;;;;;;;25.59;40.23;100500.84;5068766;28;20045;-89
2023/06/02 08:09:24;;;;;;;23.75;9.05;;;;;;;25.49;39.78;100495.84;5072801;28;20070;-86
2023/06/02 08:11:51;;;;;;;23.60;8.93;;;;;;;25.55;40.12;100507.84;5060268;28;20029;-88
2023/06/02 08:14:16;;;;;;;15.25;7.72;;;;;;;25.65;39.23;100503.53;5078968;28;20043;-90
2023/06/02 08:16:42;;;;;;;18.58;7.50;;;;;;;25.81;39.19;100516.72;5062856;28;20028;-90
2023/06/02 08:19:08;;;;;;;23.83;7.60;;;;;;;25.73;39.53;100492.22;5076602;28;20059;-86
2023/06/02 08:21:34;;;;;;;34.10;7.70;;;;;;;25.86;39.16;100511.38;5090770;28;20063;-87
2023/06/02 08:24:00;;;;;;;23.42;7.65;;;;;;;25.91;40.03;100495.00;5090821;28;20024;-90
2023/06/02 08:26:26;;;;;;;12.63;6.50;;;;;;;25.90;40.22;100481.47;5086120;28;20075;-89
2023/06/02 08:28:53;;;;;;;15.48;6.78;;;;;;;25.89;40.43;100480.63;5086821;28;20020;-88
2023/06/02 08:31:22;;;;;;;22.73;7.60;;;;;;;25.93;40.88;100505.81;5079348;28;20118;-89
2023/06/02 08:33:52;;;;;;;29.02;7.50;;;;;;;25.77;41.63;100487.94;5070322;28;20039;-83
2023/06/02 08:36:19;;;;;;;27.63;7.70;;;;;;;25.84;41.33;100483.19;5068752;28;20479;-86
2023/06/02 08:38:51;;;;;;;18.40;7.82;;;;;;;25.77;41.43;100452.13;5079332;28;20047;-86
2023/06/02 08:41:17;;;;;;;12.75;6.45;;;;;;;26.15;40.50;100495.16;5072308;28;20032;-87
2023/06/02 08:43:42;;;;;;;35.00;7.60;;;;;;;26.01;40.84;100483.44;5073961;28;20048;-88
2023/06/02 08:46:13;;;;;;;48.67;10.18;;;;;;;26.09;40.83;100496.06;5073909;28;20421;-89
2023/06/02 08:48:39;;;;;;;17.92;6.88;;;;;;;26.06;40.93;100485.50;5071393;28;20558;-88
2023/06/02 08:51:08;;;;;;;16.73;6.47;;;;;;;26.11;40.86;100488.44;5071533;28;20032;-88
2023/06/02 08:53:35;;;;;;;22.17;7.13;;;;;;;26.20;41.04;100500.88;5069749;28;20123;-90
2023/06/02 08:56:01;;;;;;;46.20;9.43;;;;;;;26.16;40.61;100497.72;5073407;28;20071;-89
2023/06/02 08:58:30;;;;;;;26.52;6.75;;;;;;;26.18;38.91;100500.25;5105014;28;20096;-85
2023/06/02 09:00:55;;;;;;;17.98;6.65;;;;;;;26.08;40.80;100499.94;5071923;28;20137;-84
2023/06/02 09:03:21;;;;;;;10.63;6.35;;;;;;;25.94;39.79;100480.75;5071710;28;20122;-80
2023/06/02 09:05:47;;;;;;;34.53;6.65;;;;;;;25.98;40.57;100501.28;5070551;28;20100;-84
2023/06/02 09:08:14;;;;;;;8.50;4.80;;;;;;;26.02;40.28;100495.31;5070763;28;20024;-82
2023/06/02 09:10:41;;;;;;;17.20;5.63;;;;;;;25.95;38.91;100493.47;5069841;28;20024;-86
2023/06/02 09:13:27;;;;;;;18.23;5.85;;;;;;;26.01;40.24;100499.16;5071041;28;20492;-88
2023/06/02 09:16:00;;;;;;;25.27;6.18;;;;;;;26.21;39.39;100502.53;5080873;28;20021;-84
2023/06/02 09:18:27;;;;;;;13.57;6.20;;;;;;;26.34;38.44;100496.88;5083648;28;20035;-80
2023/06/02 09:20:53;;;;;;;21.10;5.32;;;;;;;26.38;38.04;100496.19;5068865;28;20040;-88
2023/06/02 09:23:19;;;;;;;34.75;7.40;;;;;;;26.63;37.67;100504.38;5068253;28;20071;-81
2023/06/02 09:25:45;;;;;;;10.45;5.38;;;;;;;26.47;37.16;100510.50;5066940;28;20060;-82
2023/06/02 09:28:12;;;;;;;17.95;7.65;;;;;;;26.34;37.76;100496.88;5068428;28;20499;-85
2023/06/02 09:30:38;;;;;;;11.18;5.53;;;;;;;26.35;39.70;100501.34;5068702;28;20056;-78
2023/06/02 09:33:11;;;;;;;70.13;11.45;;;;;;;26.46;40.14;100498.63;5067518;28;20031;-82
2023/06/02 09:35:36;;;;;;;14.32;5.10;;;;;;;26.55;40.08;100499.16;5069085;28;20028;-90
2023/06/02 09:38:05;;;;;;;20.73;5.68;;;;;;;26.61;40.21;100498.22;5067637;28;20039;-85
2023/06/02 09:40:34;;;;;;;17.90;5.43;;;;;;;26.50;40.31;100486.06;5067824;28;20115;-86
2023/06/02 09:43:04;;;;;;;17.23;4.68;;;;;;;26.57;40.28;100494.28;5069184;28;20059;-80
2023/06/02 09:45:30;;;;;;;22.42;5.03;;;;;;;26.57;38.91;100491.50;5068027;28;20061;-83
2023/06/02 09:47:57;;;;;;;20.00;5.35;;;;;;;26.50;39.81;100468.69;5066145;28;20067;-85
2023/06/02 09:50:36;;;;;;;20.45;5.10;;;;;;;26.51;40.47;100462.09;5068128;28;20028;-87
2023/06/02 09:53:08;;;;;;;51.15;8.05;;;;;;;26.78;40.55;100474.44;5071971;28;20209;-89
2023/06/02 09:55:36;;;;;;;168.97;21.87;;;;;;;26.81;40.12;100465.72;5073394;28;20025;-90
2023/06/02 09:58:02;;;;;;;16.70;5.07;;;;;;;26.77;39.24;100458.94;5069670;28;20267;-82
2023/06/02 10:00:29;;;;;;;52.72;8.88;;;;;;;26.91;36.79;100474.25;5076238;28;20504;-89
2023/06/02 10:02:54;;;;;;;15.70;4.85;;;;;;;26.89;37.60;100453.50;5081236;28;20032;-89
2023/06/02 10:05:22;;;;;;;16.90;4.90;;;;;;;27.04;38.02;100463.03;5081494;28;20418;-87
2023/06/02 10:07:56;;;;;;;18.75;5.82;;;;;;;27.11;38.78;100454.66;5075734;28;20032;-89
2023/06/02 10:10:37;;;;;;;20.33;6.93;;;;;;;27.16;37.73;100463.06;5072628;28;20024;-89
2023/06/02 10:13:02;;;;;;;17.58;4.75;;;;;;;27.18;37.48;100452.63;5087140;28;20028;-87
2023/06/02 10:15:35;;;;;;;18.70;5.03;;;;;;;27.26;34.98;100459.72;5077204;28;20075;-87
2023/06/02 10:18:09;;;;;;;9.77;4.13;;;;;;;27.15;33.81;100419.97;5066983;28;20044;-88
2023/06/02 10:20:59;;;;;;;11.13;4.63;;;;;;;27.31;35.20;100451.53;5066931;28;20044;-89
2023/06/02 10:23:30;;;;;;;13.23;4.10;;;;;;;27.16;36.49;100462.19;5069770;28;20081;-84
2023/06/02 10:26:14;;;;;;;20.40;4.47;;;;;;;27.20;39.59;100460.66;5069960;28;20396;-87
2023/06/02 10:28:41;;;;;;;17.48;6.97;;;;;;;26.99;40.57;100442.72;5083133;28;20021;-87
2023/06/02 10:31:09;;;;;;;14.43;4.80;;;;;;;27.20;40.46;100466.19;5071524;28;20107;-87
2023/06/02 10:33:45;;;;;;;43.97;6.18;;;;;;;27.19;40.53;100456.19;5069838;28;20098;-86
2023/06/02 10:36:13;;;;;;;29.90;5.47;;;;;;;27.14;40.63;100450.56;5069318;28;20416;-86
2023/06/02 10:38:39;;;;;;;21.90;5.32;;;;;;;27.23;39.43;100451.91;5069315;28;20101;-85
2023/06/02 10:41:05;;;;;;;12.18;5.15;;;;;;;27.19;39.05;100439.63;5070124;28;20496;-87
2023/06/02 10:43:32;;;;;;;13.52;4.85;;;;;;;27.22;41.23;100452.97;5070095;28;20806;-85
2023/06/02 10:46:17;;;;;;;27.35;6.32;;;;;;;27.31;40.69;100448.78;5072805;28;20048;-89
2023/06/02 10:48:43;;;;;;;13.32;5.30;;;;;;;27.39;42.26;100457.56;5070367;28;20032;-89
2023/06/02 10:51:10;;;;;;;27.25;5.28;;;;;;;27.44;46.08;100460.50;5070837;28;20090;-87
2023/06/02 10:54:05;;;;;;;17.83;4.30;;;;;;;27.22;46.77;100452.97;5077576;28;20043;-89
2023/06/02 10:56:44;;;;;;;17.92;4.75;;;;;;;27.11;46.61;100449.13;5074043;28;20020;-88
2023/06/02 10:59:29;;;;;;;11.95;4.63;;;;;;;27.09;45.79;100442.16;5092068;28;20039;-86
2023/06/02 11:01:55;;;;;;;16.33;4.88;;;;;;;26.74;45.10;100418.03;5092329;28;20036;-84
2023/06/02 11:04:27;;;;;;;20.33;5.18;;;;;;;27.04;46.77;100445.63;5094803;28;20032;-91
2023/06/02 11:07:23;;;;;;;13.25;4.22;;;;;;;27.23;46.76;100446.38;5096589;28;20123;-86
2023/06/02 11:09:59;;;;;;;13.88;4.63;;;;;;;27.33;46.50;100438.34;5115414;28;20078;-88
2023/06/02 11:12:49;;;;;;;8.80;4.80;;;;;;;27.13;45.00;100440.59;5112815;28;20028;-87
2023/06/02 11:15:16;;;;;;;11.30;4.88;;;;;;;27.22;43.99;100403.25;5092831;28;20085;-89